sensor_id;sensor_type;location;lat;lon;timestamp;pressure;altitude;pressure_sealevel;temperature;humidity
43818;BME280;29868;47.360;18.984;2023-09-07T00:00:42;63002.34;;;14.76;100.00
43818;BME280;29868;47.360;18.984;2023-09-07T00:03:08;62992.81;;;14.67;100.00
43818;BME280;29868;47.360;18.984;2023-09-07T00:05:33;62988.47;;;14.58;100.00
43818;BME280;29868;47.360;18.984;2023-09-07T00:07:59;62985.53;;;14.60;100.00
43818;BME280;29868;47.360;18.984;2023-09-07T00:10:26;62977.34;;;14.55;100.00
43818;BME280;29868;47.360;18.984;2023-09-07T00:12:52;62976.56;;;14.52;100.00
43818;BME280;29868;47.360;18.984;2023-09-07T00:15:17;62980.06;;;14.51;100.00
43818;BME280;29868;47.360;18.984;2023-09-07T00:17:45;62971.50;;;14.48;100.00
43818;BME280;29868;47.360;18.984;2023-09-07T00:20:10;62971.50;;;14.48;100.00
43818;BME280;29868;47.360;18.984;2023-09-07T00:22:37;62965.88;;;14.43;100.00
43818;BME280;29868;47.360;18.984;2023-09-07T00:25:03;62961.41;;;14.39;100.00
43818;BME280;29868;47.360;18.984;2023-09-07T00:27:29;62954.69;;;14.32;100.00
43818;BME280;29868;47.360;18.984;2023-09-07T00:29:55;62953.91;;;14.29;100.00
43818;BME280;29868;47.360;18.984;2023-09-07T00:32:20;62962.31;;;14.37;100.00
43818;BME280;29868;47.360;18.984;2023-09-07T00:34:46;62974.88;;;14.51;100.00
43818;BME280;29868;47.360;18.984;2023-09-07T00:37:11;62974.88;;;14.51;100.00
43818;BME280;29868;47.360;18.984;2023-09-07T00:39:37;62967.56;;;14.44;100.00
43818;BME280;29868;47.360;18.984;2023-09-07T00:42:03;62960.28;;;14.38;100.00
43818;BME280;29868;47.360;18.984;2023-09-07T00:44:29;62949.63;;;14.28;100.00
43818;BME280;29868;47.360;18.984;2023-09-07T00:46:56;62965.47;;;14.38;100.00
43818;BME280;29868;47.360;18.984;2023-09-07T00:49:22;62955.25;;;14.33;100.00
43818;BME280;29868;47.360;18.984;2023-09-07T00:51:48;62951.88;;;14.30;100.00
43818;BME280;29868;47.360;18.984;2023-09-07T00:54:13;62943.47;;;14.22;100.00
43818;BME280;29868;47.360;18.984;2023-09-07T00:56:39;62939.69;;;14.14;100.00
43818;BME280;29868;47.360;18.984;2023-09-07T00:59:07;62939.88;;;14.17;100.00
43818;BME280;29868;47.360;18.984;2023-09-07T01:01:33;62934.97;;;14.07;100.00
43818;BME280;29868;47.360;18.984;2023-09-07T01:03:58;62918.25;;;13.99;100.00
43818;BME280;29868;47.360;18.984;2023-09-07T01:06:30;62915.81;;;13.95;100.00
43818;BME280;29868;47.360;18.984;2023-09-07T01:09:01;62912.78;;;13.90;100.00
43818;BME280;29868;47.360;18.984;2023-09-07T01:11:35;62907.03;;;13.89;100.00
43818;BME280;29868;47.360;18.984;2023-09-07T01:14:02;62895.28;;;13.78;100.00
43818;BME280;29868;47.360;18.984;2023-09-07T01:16:30;62889.13;;;13.73;100.00
43818;BME280;29868;47.360;18.984;2023-09-07T01:18:56;62888.78;;;13.75;100.00
43818;BME280;29868;47.360;18.984;2023-09-07T01:21:22;62889.69;;;13.73;100.00
43818;BME280;29868;47.360;18.984;2023-09-07T01:23:48;62891.72;;;13.73;100.00
43818;BME280;29868;47.360;18.984;2023-09-07T01:26:14;62878.47;;;13.63;100.00
43818;BME280;29868;47.360;18.984;2023-09-07T01:28:40;62877.03;;;13.64;100.00
43818;BME280;29868;47.360;18.984;2023-09-07T01:31:05;62878.47;;;13.63;100.00
43818;BME280;29868;47.360;18.984;2023-09-07T01:33:31;62876.81;;;13.61;100.00
43818;BME280;29868;47.360;18.984;2023-09-07T01:35:57;62876.25;;;13.61;100.00
43818;BME280;29868;47.360;18.984;2023-09-07T01:38:22;62876.25;;;13.61;100.00
43818;BME280;29868;47.360;18.984;2023-09-07T01:40:48;62866.53;;;13.50;100.00
43818;BME280;29868;47.360;18.984;2023-09-07T01:43:14;62866.16;;;13.52;100.00
43818;BME280;29868;47.360;18.984;2023-09-07T01:45:39;62866.16;;;13.52;100.00
43818;BME280;29868;47.360;18.984;2023-09-07T01:48:13;62862.81;;;13.49;100.00
43818;BME280;29868;47.360;18.984;2023-09-07T01:50:38;62865.03;;;13.51;100.00
43818;BME280;29868;47.360;18.984;2023-09-07T01:53:04;62860.78;;;13.49;100.00
43818;BME280;29868;47.360;18.984;2023-09-07T01:55:30;62858.13;;;13.42;100.00
43818;BME280;29868;47.360;18.984;2023-09-07T01:57:55;62859.44;;;13.46;100.00
43818;BME280;29868;47.360;18.984;2023-09-07T02:00:21;62854.97;;;13.42;100.00
43818;BME280;29868;47.360;18.984;2023-09-07T02:02:46;62855.53;;;13.42;100.00
43818;BME280;29868;47.360;18.984;2023-09-07T02:05:12;62851.63;;;13.38;100.00
43818;BME280;29868;47.360;18.984;2023-09-07T02:07:37;62856.78;;;13.38;100.00
43818;BME280;29868;47.360;18.984;2023-09-07T02:10:03;62840.41;;;13.28;100.00
43818;BME280;29868;47.360;18.984;2023-09-07T02:12:29;62837.81;;;13.28;100.00
43818;BME280;29868;47.360;18.984;2023-09-07T02:14:55;62834.81;;;13.23;100.00
43818;BME280;29868;47.360;18.984;2023-09-07T02:17:20;62831.78;;;13.18;100.00
43818;BME280;29868;47.360;18.984;2023-09-07T02:19:46;62824.00;;;13.18;100.00
43818;BME280;29868;47.360;18.984;2023-09-07T02:22:12;62830.31;;;13.19;100.00
43818;BME280;29868;47.360;18.984;2023-09-07T02:24:37;62834.94;;;13.19;100.00
43818;BME280;29868;47.360;18.984;2023-09-07T02:27:03;62831.78;;;13.18;100.00
43818;BME280;29868;47.360;18.984;2023-09-07T02:29:28;62820.69;;;13.15;100.00
43818;BME280;29868;47.360;18.984;2023-09-07T02:31:53;62823.03;;;13.12;100.00
43818;BME280;29868;47.360;18.984;2023-09-07T02:34:19;62822.47;;;13.12;100.00
43818;BME280;29868;47.360;18.984;2023-09-07T02:36:44;62816.53;;;13.09;100.00
43818;BME280;29868;47.360;18.984;2023-09-07T02:39:10;62816.53;;;13.09;100.00
43818;BME280;29868;47.360;18.984;2023-09-07T02:41:37;62819.13;;;13.09;100.00
43818;BME280;29868;47.360;18.984;2023-09-07T02:44:02;62819.47;;;13.07;100.00
43818;BME280;29868;47.360;18.984;2023-09-07T02:46:28;62810.72;;;13.01;100.00
43818;BME280;29868;47.360;18.984;2023-09-07T02:48:53;62807.38;;;12.98;100.00
43818;BME280;29868;47.360;18.984;2023-09-07T02:51:22;62803.44;;;12.95;100.00
43818;BME280;29868;47.360;18.984;2023-09-07T02:53:47;62805.69;;;12.97;100.00
43818;BME280;29868;47.360;18.984;2023-09-07T02:56:13;62812.97;;;13.03;100.00
43818;BME280;29868;47.360;18.984;2023-09-07T02:58:38;62805.13;;;12.96;100.00
43818;BME280;29868;47.360;18.984;2023-09-07T03:01:07;62797.84;;;12.89;100.00
43818;BME280;29868;47.360;18.984;2023-09-07T03:03:37;62802.34;;;12.94;100.00
43818;BME280;29868;47.360;18.984;2023-09-07T03:06:10;62801.78;;;12.93;100.00
43818;BME280;29868;47.360;18.984;2023-09-07T03:08:36;62794.50;;;12.86;100.00
43818;BME280;29868;47.360;18.984;2023-09-07T03:11:05;62798.97;;;12.90;100.00
43818;BME280;29868;47.360;18.984;2023-09-07T03:13:31;62795.59;;;12.87;100.00
43818;BME280;29868;47.360;18.984;2023-09-07T03:15:56;62795.41;;;12.85;100.00
43818;BME280;29868;47.360;18.984;2023-09-07T03:18:22;62790.56;;;12.83;100.00
43818;BME280;29868;47.360;18.984;2023-09-07T03:20:47;62790.34;;;12.80;100.00
43818;BME280;29868;47.360;18.984;2023-09-07T03:23:13;62782.97;;;12.78;100.00
43818;BME280;29868;47.360;18.984;2023-09-07T03:25:39;62790.94;;;12.81;100.00
43818;BME280;29868;47.360;18.984;2023-09-07T03:28:05;62794.06;;;12.81;100.00
43818;BME280;29868;47.360;18.984;2023-09-07T03:30:30;62784.75;;;12.75;100.00
43818;BME280;29868;47.360;18.984;2023-09-07T03:32:55;62779.97;;;12.73;100.00
43818;BME280;29868;47.360;18.984;2023-09-07T03:35:21;62787.34;;;12.75;100.00
43818;BME280;29868;47.360;18.984;2023-09-07T03:37:46;62780.28;;;12.71;100.00
43818;BME280;29868;47.360;18.984;2023-09-07T03:40:12;62776.59;;;12.70;100.00
43818;BME280;29868;47.360;18.984;2023-09-07T03:42:38;62774.00;;;12.70;100.00
43818;BME280;29868;47.360;18.984;2023-09-07T03:45:05;62780.66;;;12.69;100.00
43818;BME280;29868;47.360;18.984;2023-09-07T03:47:30;62773.47;;;12.70;100.00
43818;BME280;29868;47.360;18.984;2023-09-07T03:49:56;62774.34;;;12.68;100.00
43818;BME280;29868;47.360;18.984;2023-09-07T03:52:22;62776.16;;;12.65;100.00
43818;BME280;29868;47.360;18.984;2023-09-07T03:54:50;62775.25;;;12.66;100.00
43818;BME280;29868;47.360;18.984;2023-09-07T03:57:18;62768.75;;;12.63;100.00
43818;BME280;29868;47.360;18.984;2023-09-07T03:59:44;62768.34;;;12.58;100.00
43818;BME280;29868;47.360;18.984;2023-09-07T04:02:10;62767.19;;;12.57;100.00
43818;BME280;29868;47.360;18.984;2023-09-07T04:04:35;62763.72;;;12.58;100.00
43818;BME280;29868;47.360;18.984;2023-09-07T04:07:00;62767.84;;;12.64;100.00
43818;BME280;29868;47.360;18.984;2023-09-07T04:09:26;62765.41;;;12.60;100.00
43818;BME280;29868;47.360;18.984;2023-09-07T04:11:51;62772.44;;;12.64;100.00
43818;BME280;29868;47.360;18.984;2023-09-07T04:14:17;62776.94;;;12.68;100.00
43818;BME280;29868;47.360;18.984;2023-09-07T04:16:42;62772.69;;;12.66;100.00
43818;BME280;29868;47.360;18.984;2023-09-07T04:19:07;62776.94;;;12.68;100.00
43818;BME280;29868;47.360;18.984;2023-09-07T04:21:35;62783.66;;;12.74;100.00
43818;BME280;29868;47.360;18.984;2023-09-07T04:24:01;62784.75;;;12.75;100.00
43818;BME280;29868;47.360;18.984;2023-09-07T04:26:26;62784.44;;;12.77;100.00
43818;BME280;29868;47.360;18.984;2023-09-07T04:28:52;62792.38;;;12.80;100.00
43818;BME280;29868;47.360;18.984;2023-09-07T04:31:17;62790.03;;;12.82;100.00
43818;BME280;29868;47.360;18.984;2023-09-07T04:33:42;62797.84;;;12.89;100.00
43818;BME280;29868;47.360;18.984;2023-09-07T04:36:12;62813.31;;;13.01;100.00
43818;BME280;29868;47.360;18.984;2023-09-07T04:38:39;62824.28;;;13.09;100.00
43818;BME280;29868;47.360;18.984;2023-09-07T04:41:08;62819.13;;;13.09;100.00
43818;BME280;29868;47.360;18.984;2023-09-07T04:43:34;62822.81;;;13.10;100.00
43818;BME280;29868;47.360;18.984;2023-09-07T04:46:00;62836.81;;;13.23;100.00
43818;BME280;29868;47.360;18.984;2023-09-07T04:48:25;62852.16;;;13.39;100.00
43818;BME280;29868;47.360;18.984;2023-09-07T04:51:01;62859.22;;;13.43;100.00
43818;BME280;29868;47.360;18.984;2023-09-07T04:53:29;62868.19;;;13.51;100.00
43818;BME280;29868;47.360;18.984;2023-09-07T04:55:56;62886.13;;;13.68;100.00
43818;BME280;29868;47.360;18.984;2023-09-07T04:58:21;62925.66;;;14.01;100.00
43818;BME280;29868;47.360;18.984;2023-09-07T05:00:46;62962.53;;;14.40;100.00
43818;BME280;29868;47.360;18.984;2023-09-07T05:03:12;62989.22;;;14.62;100.00
43818;BME280;29868;47.360;18.984;2023-09-07T05:05:38;63027.94;;;14.97;100.00
43818;BME280;29868;47.360;18.984;2023-09-07T05:08:04;63098.81;;;15.64;100.00
43818;BME280;29868;47.360;18.984;2023-09-07T05:10:33;63136.78;;;15.96;100.00
43818;BME280;29868;47.360;18.984;2023-09-07T05:12:58;63196.06;;;16.47;100.00
43818;BME280;29868;47.360;18.984;2023-09-07T05:15:24;63258.47;;;17.04;100.00
43818;BME280;29868;47.360;18.984;2023-09-07T05:17:49;63340.78;;;17.81;100.00
43818;BME280;29868;47.360;18.984;2023-09-07T05:20:15;63409.03;;;18.45;100.00
43818;BME280;29868;47.360;18.984;2023-09-07T05:22:40;63470.75;;;18.99;100.00
43818;BME280;29868;47.360;18.984;2023-09-07T05:25:06;63595.63;;;20.10;100.00
43818;BME280;29868;47.360;18.984;2023-09-07T05:27:34;63679.06;;;20.85;100.00
43818;BME280;29868;47.360;18.984;2023-09-07T05:29:59;63739.81;;;21.38;100.00
43818;BME280;29868;47.360;18.984;2023-09-07T05:32:24;63836.19;;;22.30;100.00
43818;BME280;29868;47.360;18.984;2023-09-07T05:34:50;63879.84;;;22.65;100.00
43818;BME280;29868;47.360;18.984;2023-09-07T05:37:15;64016.88;;;23.91;100.00
43818;BME280;29868;47.360;18.984;2023-09-07T05:39:40;64078.53;;;24.46;100.00
43818;BME280;29868;47.360;18.984;2023-09-07T05:42:06;64151.38;;;25.10;94.25
43818;BME280;29868;47.360;18.984;2023-09-07T05:44:31;64192.94;;;25.50;87.91
43818;BME280;29868;47.360;18.984;2023-09-07T05:46:57;64295.50;;;26.42;74.40
43818;BME280;29868;47.360;18.984;2023-09-07T05:49:23;64400.44;;;27.36;63.02
43818;BME280;29868;47.360;18.984;2023-09-07T05:51:49;64447.72;;;27.74;62.33
43818;BME280;29868;47.360;18.984;2023-09-07T05:54:14;64399.88;;;27.36;58.50
43818;BME280;29868;47.360;18.984;2023-09-07T05:56:39;64436.91;;;27.64;57.33
43818;BME280;29868;47.360;18.984;2023-09-07T05:59:05;64467.00;;;27.92;54.85
43818;BME280;29868;47.360;18.984;2023-09-07T06:01:30;64456.81;;;27.82;53.54
43818;BME280;29868;47.360;18.984;2023-09-07T06:03:57;64404.22;;;27.37;53.03
43818;BME280;29868;47.360;18.984;2023-09-07T06:06:23;64306.84;;;26.52;55.68
43818;BME280;29868;47.360;18.984;2023-09-07T06:08:49;64428.41;;;27.57;53.68
43818;BME280;29868;47.360;18.984;2023-09-07T06:11:14;64372.81;;;27.07;54.09
43818;BME280;29868;47.360;18.984;2023-09-07T06:13:39;64269.22;;;26.16;56.32
43818;BME280;29868;47.360;18.984;2023-09-07T06:16:05;64305.88;;;26.47;56.96
43818;BME280;29868;47.360;18.984;2023-09-07T06:18:30;64193.13;;;25.52;59.40
43818;BME280;29868;47.360;18.984;2023-09-07T06:20:56;64132.31;;;24.95;63.51
43818;BME280;29868;47.360;18.984;2023-09-07T06:23:21;64050.25;;;24.21;68.40
43818;BME280;29868;47.360;18.984;2023-09-07T06:25:47;64087.22;;;24.49;67.79
43818;BME280;29868;47.360;18.984;2023-09-07T06:28:12;64287.19;;;26.37;58.51
43818;BME280;29868;47.360;18.984;2023-09-07T06:30:44;64253.00;;;26.04;58.20
43818;BME280;29868;47.360;18.984;2023-09-07T06:33:10;64091.94;;;24.56;64.02
43818;BME280;29868;47.360;18.984;2023-09-07T06:35:35;64045.72;;;24.17;69.98
43818;BME280;29868;47.360;18.984;2023-09-07T06:38:00;63959.19;;;23.39;75.68
43818;BME280;29868;47.360;18.984;2023-09-07T06:40:26;63865.16;;;22.51;77.50
43818;BME280;29868;47.360;18.984;2023-09-07T06:42:52;63883.63;;;22.73;78.86
43818;BME280;29868;47.360;18.984;2023-09-07T06:45:18;63824.72;;;22.17;82.21
43818;BME280;29868;47.360;18.984;2023-09-07T06:47:43;63888.91;;;22.80;80.06
43818;BME280;29868;47.360;18.984;2023-09-07T06:50:09;63935.81;;;23.15;75.89
43818;BME280;29868;47.360;18.984;2023-09-07T06:52:35;64010.44;;;23.83;71.08
43818;BME280;29868;47.360;18.984;2023-09-07T06:55:00;64032.53;;;24.02;69.95
43818;BME280;29868;47.360;18.984;2023-09-07T06:57:26;64017.25;;;23.89;71.08
43818;BME280;29868;47.360;18.984;2023-09-07T06:59:52;63923.97;;;23.12;76.67
43818;BME280;29868;47.360;18.984;2023-09-07T07:02:19;63881.75;;;22.69;80.03
43818;BME280;29868;47.360;18.984;2023-09-07T07:04:44;63887.41;;;22.74;80.59
43818;BME280;29868;47.360;18.984;2023-09-07T07:07:11;63899.47;;;22.87;79.72
43818;BME280;29868;47.360;18.984;2023-09-07T07:09:36;63905.69;;;22.93;80.43
43818;BME280;29868;47.360;18.984;2023-09-07T07:12:02;63926.78;;;23.07;78.74
43818;BME280;29868;47.360;18.984;2023-09-07T07:14:28;63920.75;;;23.04;77.72
43818;BME280;29868;47.360;18.984;2023-09-07T07:16:54;63918.28;;;22.99;77.53
43818;BME280;29868;47.360;18.984;2023-09-07T07:19:21;63927.91;;;23.08;77.53
43818;BME280;29868;47.360;18.984;2023-09-07T07:21:58;63917.94;;;23.01;76.91
43818;BME280;29868;47.360;18.984;2023-09-07T07:24:23;63929.78;;;23.12;74.96
43818;BME280;29868;47.360;18.984;2023-09-07T07:26:49;63954.66;;;23.35;76.51
43818;BME280;29868;47.360;18.984;2023-09-07T07:29:14;63991.63;;;23.70;74.54
43818;BME280;29868;47.360;18.984;2023-09-07T07:31:40;64012.94;;;23.87;71.82
43818;BME280;29868;47.360;18.984;2023-09-07T07:34:05;64015.00;;;23.87;71.99
43818;BME280;29868;47.360;18.984;2023-09-07T07:36:30;64014.63;;;23.89;71.09
43818;BME280;29868;47.360;18.984;2023-09-07T07:38:56;64040.25;;;24.14;73.83
43818;BME280;29868;47.360;18.984;2023-09-07T07:41:21;64026.50;;;23.99;71.81
43818;BME280;29868;47.360;18.984;2023-09-07T07:43:47;64024.22;;;23.97;71.01
43818;BME280;29868;47.360;18.984;2023-09-07T07:46:12;64043.81;;;24.13;71.05
43818;BME280;29868;47.360;18.984;2023-09-07T07:48:41;64072.50;;;24.36;69.53
43818;BME280;29868;47.360;18.984;2023-09-07T07:51:06;64084.78;;;24.52;71.06
43818;BME280;29868;47.360;18.984;2023-09-07T07:53:32;64085.53;;;24.48;70.20
43818;BME280;29868;47.360;18.984;2023-09-07T07:55:57;64067.44;;;24.39;69.77
43818;BME280;29868;47.360;18.984;2023-09-07T07:58:23;64116.66;;;24.83;70.56
43818;BME280;29868;47.360;18.984;2023-09-07T08:00:48;64115.34;;;24.80;67.73
43818;BME280;29868;47.360;18.984;2023-09-07T08:03:15;64090.44;;;24.57;66.24
43818;BME280;29868;47.360;18.984;2023-09-07T08:05:40;64115.91;;;24.80;68.10
43818;BME280;29868;47.360;18.984;2023-09-07T08:08:06;64156.31;;;25.12;65.73
43818;BME280;29868;47.360;18.984;2023-09-07T08:10:35;64164.63;;;25.24;64.80
43818;BME280;29868;47.360;18.984;2023-09-07T08:13:07;64181.03;;;25.39;62.92
43818;BME280;29868;47.360;18.984;2023-09-07T08:15:33;64188.97;;;25.46;63.87
43818;BME280;29868;47.360;18.984;2023-09-07T08:17:59;64215.56;;;25.70;63.96
43818;BME280;29868;47.360;18.984;2023-09-07T08:20:25;64219.72;;;25.69;63.02
43818;BME280;29868;47.360;18.984;2023-09-07T08:22:51;64234.84;;;25.87;61.06
43818;BME280;29868;47.360;18.984;2023-09-07T08:25:18;64239.19;;;25.89;61.12
43818;BME280;29868;47.360;18.984;2023-09-07T08:27:43;64233.72;;;25.86;61.77
43818;BME280;29868;47.360;18.984;2023-09-07T08:30:14;64238.06;;;25.88;60.49
43818;BME280;29868;47.360;18.984;2023-09-07T08:32:48;64225.03;;;25.76;58.44
43818;BME280;29868;47.360;18.984;2023-09-07T08:35:16;64202.00;;;25.58;59.37
43818;BME280;29868;47.360;18.984;2023-09-07T08:37:42;64215.56;;;25.70;58.93
43818;BME280;29868;47.360;18.984;2023-09-07T08:40:08;64187.81;;;25.45;58.76
43818;BME280;29868;47.360;18.984;2023-09-07T08:42:37;64189.34;;;25.51;59.60
43818;BME280;29868;47.360;18.984;2023-09-07T08:45:04;64213.31;;;25.68;59.54
43818;BME280;29868;47.360;18.984;2023-09-07T08:47:33;64209.91;;;25.65;57.29
43818;BME280;29868;47.360;18.984;2023-09-07T08:49:59;64220.66;;;25.75;56.45
43818;BME280;29868;47.360;18.984;2023-09-07T08:52:25;64215.19;;;25.72;57.85
43818;BME280;29868;47.360;18.984;2023-09-07T08:54:52;64223.09;;;25.72;57.82
43818;BME280;29868;47.360;18.984;2023-09-07T08:57:18;64234.09;;;25.84;56.07
43818;BME280;29868;47.360;18.984;2023-09-07T08:59:44;64226.94;;;25.80;57.95
43818;BME280;29868;47.360;18.984;2023-09-07T09:02:10;64266.78;;;26.18;57.51
43818;BME280;29868;47.360;18.984;2023-09-07T09:04:36;64294.38;;;26.41;57.19
43818;BME280;29868;47.360;18.984;2023-09-07T09:07:01;64308.91;;;26.52;56.70
43818;BME280;29868;47.360;18.984;2023-09-07T09:09:29;64312.53;;;26.57;55.41
43818;BME280;29868;47.360;18.984;2023-09-07T09:12:05;64359.97;;;26.98;54.69
43818;BME280;29868;47.360;18.984;2023-09-07T09:14:31;64366.75;;;27.04;54.20
43818;BME280;29868;47.360;18.984;2023-09-07T09:16:56;64386.81;;;27.24;54.94
43818;BME280;29868;47.360;18.984;2023-09-07T09:19:30;64377.34;;;27.11;52.09
43818;BME280;29868;47.360;18.984;2023-09-07T09:21:56;64348.22;;;26.82;51.34
43818;BME280;29868;47.360;18.984;2023-09-07T09:24:22;64332.72;;;26.73;49.08
43818;BME280;29868;47.360;18.984;2023-09-07T09:26:48;64325.00;;;26.68;49.47
43818;BME280;29868;47.360;18.984;2023-09-07T09:29:13;64345.97;;;26.87;48.65
43818;BME280;29868;47.360;18.984;2023-09-07T09:31:40;64339.91;;;26.84;49.04
43818;BME280;29868;47.360;18.984;2023-09-07T09:34:06;64333.50;;;26.76;48.76
43818;BME280;29868;47.360;18.984;2023-09-07T09:36:36;64383.78;;;27.19;51.21
43818;BME280;29868;47.360;18.984;2023-09-07T09:39:01;64373.00;;;27.09;47.59
43818;BME280;29868;47.360;18.984;2023-09-07T09:41:30;64382.09;;;27.17;48.17
43818;BME280;29868;47.360;18.984;2023-09-07T09:43:57;64348.81;;;26.90;49.14
43818;BME280;29868;47.360;18.984;2023-09-07T09:46:24;64352.00;;;26.90;48.29
43818;BME280;29868;47.360;18.984;2023-09-07T09:48:50;64364.09;;;27.04;50.50
43818;BME280;29868;47.360;18.984;2023-09-07T09:51:18;64361.28;;;27.01;49.03
43818;BME280;29868;47.360;18.984;2023-09-07T09:53:44;64379.25;;;27.15;46.94
43818;BME280;29868;47.360;18.984;2023-09-07T09:56:10;64394.19;;;27.31;48.87
43818;BME280;29868;47.360;18.984;2023-09-07T09:58:35;64407.63;;;27.48;49.55
43818;BME280;29868;47.360;18.984;2023-09-07T10:01:01;64430.31;;;27.61;50.02
43818;BME280;29868;47.360;18.984;2023-09-07T10:03:40;64374.13;;;27.10;47.54
43818;BME280;29868;47.360;18.984;2023-09-07T10:06:17;64384.94;;;27.20;48.08
43818;BME280;29868;47.360;18.984;2023-09-07T10:09:04;64395.91;;;27.32;47.30
43818;BME280;29868;47.360;18.984;2023-09-07T10:11:33;64397.03;;;27.33;47.43
43818;BME280;29868;47.360;18.984;2023-09-07T10:14:02;64445.09;;;27.74;48.70
43818;BME280;29868;47.360;18.984;2023-09-07T10:16:28;64451.50;;;27.82;47.01
43818;BME280;29868;47.360;18.984;2023-09-07T10:18:54;64461.34;;;27.86;48.06
43818;BME280;29868;47.360;18.984;2023-09-07T10:21:23;64479.13;;;28.05;45.61
43818;BME280;29868;47.360;18.984;2023-09-07T10:23:51;64434.28;;;27.64;46.52
43818;BME280;29868;47.360;18.984;2023-09-07T10:26:17;64404.97;;;27.40;46.36
43818;BME280;29868;47.360;18.984;2023-09-07T10:28:44;64402.69;;;27.38;45.56
43818;BME280;29868;47.360;18.984;2023-09-07T10:31:19;64417.44;;;27.52;46.46
43818;BME280;29868;47.360;18.984;2023-09-07T10:33:50;64460.78;;;27.86;49.54
43818;BME280;29868;47.360;18.984;2023-09-07T10:36:26;64455.69;;;27.81;46.78
43818;BME280;29868;47.360;18.984;2023-09-07T10:38:55;64459.09;;;27.84;45.47
43818;BME280;29868;47.360;18.984;2023-09-07T10:41:21;64450.38;;;27.81;46.46
43818;BME280;29868;47.360;18.984;2023-09-07T10:43:48;64469.09;;;27.91;46.84
43818;BME280;29868;47.360;18.984;2023-09-07T10:46:14;64469.66;;;27.99;45.88
43818;BME280;29868;47.360;18.984;2023-09-07T10:48:39;64484.25;;;28.09;47.05
43818;BME280;29868;47.360;18.984;2023-09-07T10:51:05;64510.53;;;28.35;45.70
43818;BME280;29868;47.360;18.984;2023-09-07T10:53:32;64492.38;;;28.19;45.42
43818;BME280;29868;47.360;18.984;2023-09-07T10:55:59;64481.03;;;28.09;45.48
43818;BME280;29868;47.360;18.984;2023-09-07T10:58:32;64493.53;;;28.20;46.14
43818;BME280;29868;47.360;18.984;2023-09-07T11:00:59;64517.38;;;28.42;46.99
43818;BME280;29868;47.360;18.984;2023-09-07T11:03:25;64528.56;;;28.49;45.71
43818;BME280;29868;47.360;18.984;2023-09-07T11:05:54;64542.75;;;28.62;45.78
43818;BME280;29868;47.360;18.984;2023-09-07T11:08:21;64546.72;;;28.66;44.03
43818;BME280;29868;47.360;18.984;2023-09-07T11:10:47;64552.38;;;28.71;45.05
43818;BME280;29868;47.360;18.984;2023-09-07T11:13:12;64550.69;;;28.69;44.94
43818;BME280;29868;47.360;18.984;2023-09-07T11:15:38;64574.94;;;28.89;44.64
43818;BME280;29868;47.360;18.984;2023-09-07T11:18:05;64507.69;;;28.33;41.30
43818;BME280;29868;47.360;18.984;2023-09-07T11:20:35;64534.78;;;28.55;44.43
43818;BME280;29868;47.360;18.984;2023-09-07T11:23:01;64574.72;;;28.93;43.99
43818;BME280;29868;47.360;18.984;2023-09-07T11:25:26;64559.97;;;28.80;43.45
43818;BME280;29868;47.360;18.984;2023-09-07T11:27:52;64546.91;;;28.68;42.41
43818;BME280;29868;47.360;18.984;2023-09-07T11:30:20;64542.00;;;28.66;42.31
43818;BME280;29868;47.360;18.984;2023-09-07T11:32:46;64558.81;;;28.79;43.61
43818;BME280;29868;47.360;18.984;2023-09-07T11:35:12;64542.19;;;28.61;42.41
43818;BME280;29868;47.360;18.984;2023-09-07T11:37:37;64574.94;;;28.96;42.75
43818;BME280;29868;47.360;18.984;2023-09-07T11:40:03;64565.44;;;28.82;40.89
43818;BME280;29868;47.360;18.984;2023-09-07T11:42:37;64553.16;;;28.74;41.74
43818;BME280;29868;47.360;18.984;2023-09-07T11:45:02;64548.41;;;28.67;43.17
43818;BME280;29868;47.360;18.984;2023-09-07T11:47:28;64534.59;;;28.52;41.29
43818;BME280;29868;47.360;18.984;2023-09-07T11:49:53;64530.63;;;28.49;40.88
43818;BME280;29868;47.360;18.984;2023-09-07T11:52:18;64522.88;;;28.44;40.71
43818;BME280;29868;47.360;18.984;2023-09-07T11:54:44;64539.53;;;28.61;41.75
43818;BME280;29868;47.360;18.984;2023-09-07T11:57:09;64584.22;;;28.99;44.37
43818;BME280;29868;47.360;18.984;2023-09-07T11:59:35;64584.78;;;29.00;41.53
43818;BME280;29868;47.360;18.984;2023-09-07T12:02:00;64577.22;;;28.91;42.43
43818;BME280;29868;47.360;18.984;2023-09-07T12:04:25;64557.88;;;28.73;40.49
43818;BME280;29868;47.360;18.984;2023-09-07T12:06:51;64533.47;;;28.51;40.83
43818;BME280;29868;47.360;18.984;2023-09-07T12:09:16;64513.56;;;28.33;40.67
43818;BME280;29868;47.360;18.984;2023-09-07T12:11:42;64540.47;;;28.60;41.08
43818;BME280;29868;47.360;18.984;2023-09-07T12:14:09;64527.41;;;28.48;41.58
43818;BME280;29868;47.360;18.984;2023-09-07T12:16:34;64555.59;;;28.71;42.93
43818;BME280;29868;47.360;18.984;2023-09-07T12:19:00;64564.88;;;28.82;41.63
43818;BME280;29868;47.360;18.984;2023-09-07T12:21:25;64574.94;;;28.89;42.19
43818;BME280;29868;47.360;18.984;2023-09-07T12:23:51;64614.34;;;29.26;42.61
43818;BME280;29868;47.360;18.984;2023-09-07T12:26:16;64576.81;;;28.93;40.50
43818;BME280;29868;47.360;18.984;2023-09-07T12:28:46;64580.59;;;28.94;40.08
43818;BME280;29868;47.360;18.984;2023-09-07T12:31:12;64569.06;;;28.88;39.06
43818;BME280;29868;47.360;18.984;2023-09-07T12:33:37;64568.31;;;28.85;40.90
43818;BME280;29868;47.360;18.984;2023-09-07T12:36:03;64561.88;;;28.77;38.88
43818;BME280;29868;47.360;18.984;2023-09-07T12:38:30;64581.00;;;28.99;38.81
43818;BME280;29868;47.360;18.984;2023-09-07T12:40:55;64568.50;;;28.88;39.86